createdAt,value
2018-02-18T00:01:00.300Z,44.47
2018-02-18T00:03:29.301Z,47.60
2018-02-18T00:05:58.240Z,40.63
2018-02-18T00:08:27.188Z,41.80
2018-02-18T00:10:56.568Z,45.87
2018-02-18T00:13:25.523Z,45.10
2018-02-18T00:15:55.272Z,39.70
2018-02-18T00:18:24.620Z,40.90
2018-02-18T00:20:53.637Z,39.20
2018-02-18T00:23:22.575Z,40.80
2018-02-18T00:25:51.542Z,41.10
2018-02-18T00:28:21.290Z,36.67
2018-02-18T00:30:50.666Z,38.53
2018-02-18T00:33:19.617Z,37.67
2018-02-18T00:35:48.646Z,44.90
2018-02-18T00:38:17.617Z,39.10
2018-02-18T00:40:47.348Z,44.57
2018-02-18T00:43:16.326Z,32.20
2018-02-18T00:45:46.093Z,41.27
2018-02-18T00:48:15.839Z,35.20
2018-02-18T00:50:45.619Z,36.90
2018-02-18T00:53:15.341Z,35.83
2018-02-18T00:55:44.298Z,41.60
2018-02-18T00:58:13.350Z,36.60
2018-02-18T01:00:43.074Z,42.03
2018-02-18T01:03:12.085Z,38.97
2018-02-18T01:05:41.455Z,43.60
2018-02-18T01:08:11.164Z,36.27
2018-02-18T01:10:40.532Z,38.73
2018-02-18T01:13:09.901Z,36.20
2018-02-18T01:15:40.033Z,43.33
2018-02-18T01:18:09.008Z,33.83
2018-02-18T01:20:38.754Z,35.40
2018-02-18T01:23:07.721Z,33.80
2018-02-18T01:25:37.479Z,40.90
2018-02-18T01:28:06.433Z,36.97
2018-02-18T01:30:35.422Z,31.37
2018-02-18T01:33:04.431Z,39.67
2018-02-18T01:35:33.420Z,34.90
2018-02-18T01:38:02.429Z,34.77
2018-02-18T01:40:31.311Z,36.27
2018-02-18T01:43:00.346Z,33.47
2018-02-18T01:45:29.317Z,37.90
2018-02-18T01:47:59.053Z,34.60
2018-02-18T01:50:37.019Z,41.67
2018-02-18T01:53:06.394Z,40.17
2018-02-18T01:55:35.346Z,42.83
2018-02-18T01:58:04.720Z,39.77
2018-02-18T02:00:34.608Z,37.57
2018-02-18T02:03:03.999Z,34.93
2018-02-18T02:05:32.983Z,32.83
2018-02-18T02:08:02.750Z,35.77
2018-02-18T02:10:31.714Z,38.90
2018-02-18T02:13:00.810Z,35.40
2018-02-18T02:15:29.830Z,43.07
2018-02-18T02:17:59.760Z,39.50
2018-02-18T02:20:28.710Z,38.77
2018-02-18T02:22:59.261Z,40.07
2018-02-18T02:25:28.987Z,41.53
2018-02-18T02:27:58.328Z,36.07
2018-02-18T02:30:27.339Z,43.90
2018-02-18T02:32:56.706Z,40.00
2018-02-18T02:35:27.299Z,40.67
2018-02-18T02:37:57.001Z,36.97
2018-02-18T02:40:26.735Z,36.37
2018-02-18T02:42:55.709Z,34.90
2018-02-18T02:45:25.481Z,44.20
2018-02-18T02:47:54.531Z,40.50
2018-02-18T02:50:23.508Z,38.47
2018-02-18T02:52:53.208Z,41.77
2018-02-18T02:55:23.033Z,37.67
2018-02-18T02:57:52.756Z,36.63
2018-02-18T03:00:23.584Z,38.10
2018-02-18T03:02:52.617Z,36.60
2018-02-18T03:05:21.605Z,39.83
2018-02-18T03:07:50.605Z,37.43
2018-02-18T03:10:20.003Z,43.10
2018-02-18T03:12:48.948Z,44.73
2018-02-18T03:15:18.686Z,36.77
2018-02-18T03:17:47.751Z,38.77
2018-02-18T03:20:17.509Z,37.17
2018-02-18T03:22:47.646Z,35.60
2018-02-18T03:25:16.713Z,44.80
2018-02-18T03:27:45.695Z,37.87
2018-02-18T03:30:15.079Z,36.03
2018-02-18T03:32:44.060Z,37.57
2018-02-18T03:35:13.404Z,37.23
2018-02-18T03:37:43.148Z,39.83
2018-02-18T03:40:12.528Z,35.93
2018-02-18T03:42:42.397Z,42.03
2018-02-18T03:45:11.777Z,41.03
2018-02-18T03:47:41.253Z,33.60
2018-02-18T03:50:10.253Z,37.03
2018-02-18T03:52:39.208Z,33.23
2018-02-18T03:55:08.240Z,35.20
2018-02-18T03:57:37.187Z,37.50
2018-02-18T04:00:06.253Z,35.77
2018-02-18T04:02:35.985Z,34.07
2018-02-18T04:05:04.963Z,39.67
2018-02-18T04:07:34.745Z,36.50
2018-02-18T04:10:03.689Z,34.77
2018-02-18T04:12:33.058Z,36.37
2018-02-18T04:15:02.883Z,34.70
2018-02-18T04:17:31.835Z,32.93
2018-02-18T04:20:00.851Z,34.90
2018-02-18T04:22:29.849Z,31.77
2018-02-18T04:24:59.578Z,35.50
2018-02-18T04:27:28.528Z,38.30
2018-02-18T04:29:57.520Z,31.23
2018-02-18T04:32:26.472Z,30.27
2018-02-18T04:34:55.462Z,40.63
2018-02-18T04:37:24.518Z,45.85
2018-02-18T04:39:53.831Z,32.43
2018-02-18T04:42:22.815Z,38.13
2018-02-18T04:44:52.567Z,32.63
2018-02-18T04:47:21.556Z,33.27
2018-02-18T04:49:50.520Z,35.40
2018-02-18T04:52:19.484Z,29.20
2018-02-18T04:54:48.457Z,27.20
2018-02-18T04:57:18.176Z,38.77
2018-02-18T04:59:47.134Z,32.70
2018-02-18T05:02:16.291Z,32.27
2018-02-18T05:04:46.025Z,32.23
2018-02-18T05:07:15.374Z,34.33
2018-02-18T05:09:44.385Z,33.00
2018-02-18T05:12:14.098Z,34.93
2018-02-18T05:14:43.854Z,37.20
2018-02-18T05:17:12.822Z,32.23
2018-02-18T05:19:41.794Z,34.13
2018-02-18T05:22:10.791Z,31.70
2018-02-18T05:24:40.133Z,30.10
2018-02-18T05:27:09.093Z,30.77
2018-02-18T05:29:38.094Z,34.40
2018-02-18T05:32:08.122Z,34.23
2018-02-18T05:34:37.967Z,31.80
2018-02-18T05:37:07.716Z,31.80
2018-02-18T05:39:37.470Z,32.40
2018-02-18T05:42:06.509Z,40.53
2018-02-18T05:44:36.553Z,32.07
2018-02-18T05:47:06.446Z,34.10
2018-02-18T05:49:35.420Z,33.07
2018-02-18T05:52:04.383Z,30.90
2018-02-18T05:54:33.366Z,31.03
2018-02-18T05:57:03.440Z,32.90
2018-02-18T05:59:33.194Z,29.33
2018-02-18T06:02:02.150Z,32.20
2018-02-18T06:04:31.532Z,32.07
2018-02-18T06:07:00.491Z,37.87
2018-02-18T06:09:29.457Z,31.93
2018-02-18T06:11:59.221Z,30.67
2018-02-18T06:14:28.169Z,32.87
2018-02-18T06:16:57.552Z,29.30
2018-02-18T06:19:26.549Z,31.20
2018-02-18T06:21:55.521Z,32.77
2018-02-18T06:24:24.712Z,28.50
2018-02-18T06:26:53.688Z,37.00
2018-02-18T06:29:22.666Z,34.53
2018-02-18T06:31:51.650Z,41.47
2018-02-18T06:34:20.622Z,25.97
2018-02-18T06:36:49.571Z,27.43
2018-02-18T06:39:19.298Z,30.20
2018-02-18T06:41:48.267Z,29.17
2018-02-18T06:44:18.016Z,27.27
2018-02-18T06:46:47.001Z,30.10
2018-02-18T06:49:16.478Z,29.57
2018-02-18T06:51:46.188Z,25.30
2018-02-18T06:54:15.998Z,29.20
2018-02-18T06:56:45.738Z,27.77
2018-02-18T06:59:15.213Z,31.27
2018-02-18T07:01:44.580Z,29.03
2018-02-18T07:04:13.564Z,32.67
2018-02-18T07:06:43.233Z,29.43
2018-02-18T07:09:12.227Z,30.40
2018-02-18T07:11:41.185Z,28.23
2018-02-18T07:14:10.214Z,27.10
2018-02-18T07:16:39.185Z,31.07
2018-02-18T07:19:08.930Z,28.50
2018-02-18T07:21:37.979Z,23.07
2018-02-18T07:24:07.086Z,25.57
2018-02-18T07:26:36.085Z,31.77
2018-02-18T07:29:05.178Z,34.23
2018-02-18T07:31:34.254Z,25.07
2018-02-18T07:34:03.272Z,25.93
2018-02-18T07:36:33.172Z,31.10
2018-02-18T07:39:02.226Z,35.43
2018-02-18T07:41:32.091Z,31.73
2018-02-18T07:44:01.119Z,32.10
2018-02-18T07:46:30.211Z,33.97
2018-02-18T07:49:00.663Z,30.43
2018-02-18T07:51:30.520Z,37.03
2018-02-18T07:53:59.565Z,31.60
2018-02-18T07:56:28.638Z,32.03
2018-02-18T07:58:57.718Z,31.80
2018-02-18T08:01:26.776Z,31.70
2018-02-18T08:03:56.622Z,34.83
2018-02-18T08:06:25.709Z,29.13
2018-02-18T08:08:55.510Z,34.83
2018-02-18T08:11:24.538Z,29.10
2018-02-18T08:13:53.680Z,36.00
2018-02-18T08:16:22.656Z,31.23
2018-02-18T08:18:51.651Z,31.60
2018-02-18T08:21:20.647Z,29.20
2018-02-18T08:23:50.417Z,29.33
2018-02-18T08:26:19.395Z,36.40
2018-02-18T08:28:48.420Z,35.07
2018-02-18T08:31:17.868Z,29.83
2018-02-18T08:33:48.088Z,37.63
2018-02-18T08:36:17.150Z,31.77
2018-02-18T08:38:46.529Z,36.60
2018-02-18T08:41:15.589Z,32.70
2018-02-18T08:43:46.837Z,37.10
2018-02-18T08:46:15.912Z,44.93
2018-02-18T08:48:45.013Z,35.97
2018-02-18T08:51:15.200Z,34.73
2018-02-18T08:53:44.212Z,31.63
2018-02-18T08:56:13.328Z,35.90
2018-02-18T08:58:43.218Z,33.33
2018-02-18T09:01:14.729Z,37.30
2018-02-18T09:03:44.037Z,33.37
2018-02-18T09:06:13.386Z,33.03
2018-02-18T09:08:43.554Z,35.93
2018-02-18T09:11:13.663Z,35.73
2018-02-18T09:13:43.774Z,36.37
2018-02-18T09:16:12.820Z,37.03
2018-02-18T09:18:42.178Z,41.97
2018-02-18T09:21:11.225Z,36.20
2018-02-18T09:23:40.637Z,32.50
2018-02-18T09:26:10.862Z,36.50
2018-02-18T09:28:40.298Z,36.33
2018-02-18T09:31:10.864Z,41.50
2018-02-18T09:33:39.813Z,41.50
2018-02-18T09:36:08.785Z,42.20
2018-02-18T09:38:38.870Z,28.87
2018-02-18T09:41:22.755Z,29.37
2018-02-18T09:43:51.744Z,37.17
2018-02-18T09:46:21.564Z,32.60
2018-02-18T09:48:50.665Z,32.23
2018-02-18T09:51:19.645Z,34.40
2018-02-18T09:53:48.712Z,36.67
2018-02-18T09:56:17.887Z,29.13
2018-02-18T09:58:46.895Z,32.70
2018-02-18T10:01:16.653Z,29.00
2018-02-18T10:03:47.045Z,48.70
2018-02-18T10:06:16.866Z,32.57
2018-02-18T10:08:46.591Z,27.43
2018-02-18T10:11:16.929Z,26.80
2018-02-18T10:13:46.137Z,33.87
2018-02-18T10:16:15.105Z,30.63
2018-02-18T10:18:44.590Z,29.83
2018-02-18T10:21:14.299Z,24.53
2018-02-18T10:23:44.083Z,24.53
2018-02-18T10:26:13.058Z,26.23
2018-02-18T10:28:42.189Z,24.80
2018-02-18T10:31:12.815Z,31.30
2018-02-18T10:33:42.578Z,34.50
2018-02-18T10:36:11.552Z,25.17
2018-02-18T10:38:40.538Z,35.27
2018-02-18T10:41:09.538Z,24.63
2018-02-18T10:43:39.493Z,28.40
2018-02-18T10:46:08.515Z,22.10
2018-02-18T10:48:38.270Z,22.23
2018-02-18T10:51:07.252Z,27.30
2018-02-18T10:53:36.244Z,23.03
2018-02-18T10:56:05.201Z,25.57
2018-02-18T10:58:35.009Z,18.77
2018-02-18T11:01:04.403Z,22.17
2018-02-18T11:03:33.389Z,24.63
2018-02-18T11:06:02.421Z,19.77
2018-02-18T11:08:32.633Z,21.23
2018-02-18T11:11:01.555Z,20.87
2018-02-18T11:13:30.625Z,18.70
2018-02-18T11:15:59.672Z,25.57
2018-02-18T11:18:28.631Z,20.20
2018-02-18T11:20:58.817Z,17.63
2018-02-18T11:23:28.584Z,22.57
2018-02-18T11:25:57.870Z,23.40
2018-02-18T11:28:26.868Z,19.53
2018-02-18T11:30:55.875Z,24.87
2018-02-18T11:33:25.228Z,20.53
2018-02-18T11:35:54.219Z,18.97
2018-02-18T11:38:23.211Z,19.30
2018-02-18T11:40:52.651Z,17.53
2018-02-18T11:43:21.623Z,24.20
2018-02-18T11:45:50.639Z,21.73
2018-02-18T11:48:20.034Z,21.43
2018-02-18T11:50:49.459Z,19.93
2018-02-18T11:53:18.454Z,19.80
2018-02-18T11:55:47.432Z,21.17
2018-02-18T11:58:16.406Z,18.60
2018-02-18T12:00:46.230Z,22.30
2018-02-18T12:03:15.290Z,18.03
2018-02-18T12:05:44.281Z,16.03
2018-02-18T12:08:14.077Z,16.97
2018-02-18T12:10:43.076Z,16.90
2018-02-18T12:13:12.091Z,15.17
2018-02-18T12:15:41.922Z,20.63
2018-02-18T12:18:10.912Z,18.73
2018-02-18T12:20:39.902Z,20.77
2018-02-18T12:23:08.891Z,14.43
2018-02-18T12:25:37.888Z,22.73
2018-02-18T12:28:06.927Z,22.53
2018-02-18T12:30:36.252Z,14.77
2018-02-18T12:33:05.622Z,15.57
2018-02-18T12:35:34.602Z,14.73
2018-02-18T12:38:04.336Z,13.23
2018-02-18T12:40:34.108Z,15.70
2018-02-18T12:43:05.876Z,17.63
2018-02-18T12:45:35.297Z,14.57
2018-02-18T12:48:04.699Z,17.00
2018-02-18T12:50:34.521Z,14.60
2018-02-18T12:53:04.255Z,19.07
2018-02-18T12:55:33.275Z,13.27
2018-02-18T12:58:02.313Z,14.47
2018-02-18T13:00:32.127Z,16.40
2018-02-18T13:03:01.122Z,13.40
2018-02-18T13:05:30.854Z,14.90
2018-02-18T13:07:59.910Z,13.67
2018-02-18T13:10:29.129Z,15.73
2018-02-18T13:12:59.038Z,15.10
2018-02-18T13:15:28.835Z,16.03
2018-02-18T13:17:57.882Z,13.60
2018-02-18T13:20:26.846Z,13.83
2018-02-18T13:22:56.640Z,17.53
2018-02-18T13:25:26.007Z,20.30
2018-02-18T13:27:55.602Z,13.60
2018-02-18T13:30:24.651Z,14.70
2018-02-18T13:32:54.511Z,19.40
2018-02-18T13:35:23.896Z,16.12
2018-02-18T13:37:54.042Z,15.45
2018-02-18T13:40:23.303Z,14.07
2018-02-18T13:42:52.321Z,16.33
2018-02-18T13:45:21.802Z,13.30
2018-02-18T13:47:50.854Z,15.63
2018-02-18T13:50:20.222Z,13.90
2018-02-18T13:52:49.249Z,12.17
2018-02-18T13:55:18.479Z,17.03
2018-02-18T13:57:47.886Z,15.03
2018-02-18T14:00:16.873Z,13.60
2018-02-18T14:02:45.991Z,13.67
2018-02-18T14:05:15.019Z,15.93
2018-02-18T14:07:45.614Z,17.27
2018-02-18T14:10:14.776Z,15.93
2018-02-18T14:12:44.510Z,17.90
2018-02-18T14:15:13.520Z,15.80
2018-02-18T14:17:42.493Z,15.87
2018-02-18T14:20:11.489Z,12.77
2018-02-18T14:22:40.886Z,15.83
2018-02-18T14:25:09.921Z,15.07
2018-02-18T14:27:38.880Z,15.73
2018-02-18T14:30:08.610Z,17.10
2018-02-18T14:32:38.377Z,17.50
2018-02-18T14:35:07.770Z,15.63
2018-02-18T14:37:37.686Z,19.97
2018-02-18T14:40:06.655Z,14.87
2018-02-18T14:42:59.470Z,16.77
2018-02-18T14:45:40.527Z,14.50
2018-02-18T14:48:21.333Z,15.10
2018-02-18T14:51:02.312Z,17.17
2018-02-18T14:53:43.082Z,14.47
2018-02-18T14:56:23.907Z,17.43
2018-02-18T14:58:52.908Z,21.80
2018-02-18T15:01:23.002Z,16.83
2018-02-18T15:03:51.984Z,19.10
2018-02-18T15:06:20.988Z,19.37
2018-02-18T15:08:49.948Z,21.87
2018-02-18T15:11:19.682Z,16.13
2018-02-18T15:13:49.421Z,17.40
2018-02-18T15:16:19.166Z,19.97
2018-02-18T15:18:48.926Z,17.47
2018-02-18T15:21:18.260Z,21.03
2018-02-18T15:23:47.246Z,17.70
2018-02-18T15:26:16.230Z,17.97
2018-02-18T15:28:45.207Z,20.17
2018-02-18T15:31:14.282Z,16.07
2018-02-18T15:33:43.275Z,20.50
2018-02-18T15:36:12.284Z,19.50
2018-02-18T15:38:41.252Z,20.67
2018-02-18T15:41:11.183Z,17.97
2018-02-18T15:43:40.909Z,17.30
2018-02-18T15:46:10.310Z,24.57
2018-02-18T15:48:39.276Z,20.10
2018-02-18T15:51:09.051Z,18.10
2018-02-18T15:53:39.238Z,24.43
2018-02-18T15:56:09.281Z,20.13
2018-02-18T15:58:38.898Z,22.23
2018-02-18T16:01:07.932Z,21.50
2018-02-18T16:03:37.771Z,19.60
2018-02-18T16:06:06.852Z,19.60
2018-02-18T16:08:35.956Z,20.90
2018-02-18T16:11:05.917Z,20.40
2018-02-18T16:13:34.978Z,22.33
2018-02-18T16:16:04.540Z,22.87
2018-02-18T16:18:34.966Z,22.63
2018-02-18T16:21:04.871Z,21.23
2018-02-18T16:23:33.876Z,25.57
2018-02-18T16:26:02.892Z,27.10
2018-02-18T16:28:32.716Z,24.77
2018-02-18T16:31:01.788Z,27.10
2018-02-18T16:33:30.972Z,24.57
2018-02-18T16:36:00.596Z,24.63
2018-02-18T16:38:31.267Z,25.47
2018-02-18T16:41:00.305Z,28.40
2018-02-18T16:43:30.348Z,25.10
2018-02-18T16:45:59.813Z,27.70
2018-02-18T16:48:30.485Z,22.17
2018-02-18T16:50:59.553Z,29.90
2018-02-18T16:53:28.482Z,27.80
2018-02-18T16:55:57.942Z,26.60
2018-02-18T16:58:27.709Z,28.20
2018-02-18T17:00:56.708Z,29.70
2018-02-18T17:03:25.709Z,31.93
2018-02-18T17:05:54.737Z,26.73
2018-02-18T17:08:24.534Z,27.50
2018-02-18T17:10:53.538Z,26.37
2018-02-18T17:13:23.453Z,30.17
2018-02-18T17:15:53.228Z,28.77
2018-02-18T17:18:22.224Z,25.47
2018-02-18T17:20:51.216Z,34.40
2018-02-18T17:23:20.293Z,26.53
2018-02-18T17:25:49.286Z,33.50
2018-02-18T17:28:18.263Z,29.43
2018-02-18T17:30:47.566Z,31.10
2018-02-18T17:33:17.006Z,29.97
2018-02-18T17:35:46.225Z,32.80
2018-02-18T17:38:15.224Z,33.03
2018-02-18T17:40:45.016Z,31.90
2018-02-18T17:43:14.027Z,35.23
2018-02-18T17:45:43.808Z,40.10
2018-02-18T17:48:13.542Z,34.63
2018-02-18T17:50:43.389Z,39.03
2018-02-18T17:53:13.127Z,34.30
2018-02-18T17:55:42.547Z,32.53
2018-02-18T17:58:12.296Z,37.30
2018-02-18T18:00:42.091Z,33.00
2018-02-18T18:03:11.875Z,38.17
2018-02-18T18:05:42.361Z,35.37
2018-02-18T18:08:11.380Z,33.20
2018-02-18T18:10:40.425Z,33.00
2018-02-18T18:13:10.270Z,40.13
2018-02-18T18:15:40.393Z,39.13
2018-02-18T18:18:09.426Z,31.67
2018-02-18T18:20:39.938Z,34.13
2018-02-18T18:23:09.764Z,37.13
2018-02-18T18:25:40.277Z,34.80
2018-02-18T18:28:09.338Z,33.50
2018-02-18T18:30:38.367Z,38.90
2018-02-18T18:33:08.602Z,32.90
2018-02-18T18:35:39.641Z,30.50
2018-02-18T18:38:08.810Z,33.30
2018-02-18T18:40:38.585Z,27.73
2018-02-18T18:43:07.738Z,29.13
2018-02-18T18:45:37.811Z,31.17
2018-02-18T18:48:07.666Z,34.43
2018-02-18T18:50:38.254Z,36.37
2018-02-18T18:53:09.021Z,30.17
2018-02-18T18:55:39.544Z,25.93
2018-02-18T18:58:10.160Z,29.80
2018-02-18T19:00:39.971Z,37.60
2018-02-18T19:03:08.985Z,32.15
2018-02-18T19:05:38.052Z,33.77
2018-02-18T19:08:07.056Z,35.97
2018-02-18T19:10:36.881Z,28.37
2018-02-18T19:13:07.155Z,27.93
2018-02-18T19:15:36.958Z,30.20
2018-02-18T19:18:07.578Z,32.23
2018-02-18T19:20:37.403Z,32.10
2018-02-18T19:23:07.228Z,29.87
2018-02-18T19:25:37.387Z,28.07
2018-02-18T19:28:07.212Z,30.17
2018-02-18T19:30:36.661Z,26.00
2018-02-18T19:33:05.777Z,30.60
2018-02-18T19:35:34.920Z,28.80
2018-02-18T19:38:04.428Z,30.37
2018-02-18T19:40:34.274Z,32.83
2018-02-18T19:43:04.095Z,29.97
2018-02-18T19:45:34.238Z,30.77
2018-02-18T19:48:03.333Z,32.60
2018-02-18T19:50:32.736Z,25.70
2018-02-18T19:53:04.863Z,31.27
2018-02-18T19:55:34.653Z,32.30
2018-02-18T19:58:04.073Z,31.17
2018-02-18T20:00:33.299Z,33.27
2018-02-18T20:03:03.153Z,30.90
2018-02-18T20:05:33.083Z,28.33
2018-02-18T20:08:02.894Z,30.97
2018-02-18T20:10:32.750Z,30.37
2018-02-18T20:13:01.899Z,32.30
2018-02-18T20:15:31.312Z,29.67
2018-02-18T20:18:01.487Z,31.47
2018-02-18T20:20:31.265Z,31.83
2018-02-18T20:23:00.260Z,31.77
2018-02-18T20:25:29.310Z,32.20
2018-02-18T20:27:59.131Z,29.77
2018-02-18T20:30:28.906Z,35.90
2018-02-18T20:32:57.936Z,31.70
2018-02-18T20:35:29.256Z,32.70
2018-02-18T20:37:58.542Z,34.93
2018-02-18T20:40:28.367Z,33.17
2018-02-18T20:42:58.272Z,31.50
2018-02-18T20:45:28.136Z,31.40
2018-02-18T20:47:57.837Z,32.80
2018-02-18T20:50:28.209Z,33.23
2018-02-18T20:52:58.819Z,32.30
2018-02-18T20:55:28.146Z,41.23
2018-02-18T20:57:57.550Z,34.70
2018-02-18T21:00:26.597Z,32.90
2018-02-18T21:02:55.620Z,59.70
2018-02-18T21:05:24.733Z,42.27
2018-02-18T21:07:53.759Z,46.73
2018-02-18T21:10:23.369Z,52.67
2018-02-18T21:12:53.196Z,51.37
2018-02-18T21:15:22.951Z,55.97
2018-02-18T21:17:52.717Z,42.00
2018-02-18T21:20:21.800Z,48.03
2018-02-18T21:22:50.875Z,46.70
2018-02-18T21:25:20.625Z,45.30
2018-02-18T21:27:49.617Z,48.93
2018-02-18T21:30:18.793Z,50.40
2018-02-18T21:32:48.558Z,48.30
2018-02-18T21:35:18.521Z,54.27
2018-02-18T21:37:48.480Z,52.37
2018-02-18T21:40:17.870Z,47.70
2018-02-18T21:42:46.873Z,44.00
2018-02-18T21:45:16.342Z,41.57
2018-02-18T21:47:45.734Z,38.93
2018-02-18T21:50:15.639Z,38.77
2018-02-18T21:52:44.803Z,38.47
2018-02-18T21:55:13.780Z,37.77
2018-02-18T21:57:42.738Z,37.13
2018-02-18T22:00:12.520Z,43.33
2018-02-18T22:02:41.531Z,42.43
2018-02-18T22:05:11.267Z,40.63
2018-02-18T22:07:40.659Z,35.00
2018-02-18T22:10:10.015Z,37.50
2018-02-18T22:12:39.810Z,37.50
2018-02-18T22:15:09.538Z,37.33
2018-02-18T22:17:38.971Z,42.03
2018-02-18T22:20:08.728Z,37.17
2018-02-18T22:22:38.446Z,46.00
2018-02-18T22:25:07.478Z,50.70
2018-02-18T22:27:36.442Z,39.13
2018-02-18T22:30:05.416Z,37.40
2018-02-18T22:32:35.200Z,44.63
2018-02-18T22:35:04.671Z,41.83
2018-02-18T22:37:34.489Z,36.33
2018-02-18T22:40:03.484Z,42.70
2018-02-18T22:42:32.433Z,35.30
2018-02-18T22:45:01.377Z,38.57
2018-02-18T22:47:30.753Z,33.80
2018-02-18T22:49:59.693Z,44.60
2018-02-18T22:52:28.751Z,38.17
2018-02-18T22:54:58.134Z,41.17
2018-02-18T22:57:27.593Z,39.37
2018-02-18T22:59:56.585Z,44.60
2018-02-18T23:02:25.575Z,37.43
2018-02-18T23:05:00.222Z,39.40
2018-02-18T23:07:29.614Z,44.63
2018-02-18T23:09:58.590Z,42.83
2018-02-18T23:12:27.550Z,38.13
2018-02-18T23:14:57.294Z,37.47
2018-02-18T23:17:26.763Z,38.50
2018-02-18T23:19:55.713Z,42.60
2018-02-18T23:22:24.805Z,35.70
2018-02-18T23:24:53.859Z,38.13
2018-02-18T23:27:23.604Z,37.43
2018-02-18T23:29:52.564Z,34.40
2018-02-18T23:32:21.532Z,34.87
2018-02-18T23:34:51.288Z,44.13
2018-02-18T23:37:20.787Z,35.77
2018-02-18T23:39:49.786Z,36.43
2018-02-18T23:42:19.543Z,43.57
2018-02-18T23:44:48.557Z,51.87
2018-02-18T23:47:17.889Z,38.60
2018-02-18T23:49:47.638Z,36.87
2018-02-18T23:52:16.650Z,40.57
2018-02-18T23:54:45.603Z,40.77
2018-02-18T23:57:14.698Z,39.53
2018-02-18T23:59:43.669Z,31.90
